sensor_id;sensor_type;location;lat;lon;timestamp;pressure;altitude;pressure_sealevel;temperature;humidity
54262;BME280;40174;52.364;6.452;2024-03-02T00:00:39;99749.00;;;6.13;100.00
54262;BME280;40174;52.364;6.452;2024-03-02T00:03:06;99757.69;;;6.13;100.00
54262;BME280;40174;52.364;6.452;2024-03-02T00:05:34;99764.13;;;6.09;100.00
54262;BME280;40174;52.364;6.452;2024-03-02T00:08:03;99760.44;;;6.12;100.00
54262;BME280;40174;52.364;6.452;2024-03-02T00:10:36;99756.88;;;6.13;100.00
54262;BME280;40174;52.364;6.452;2024-03-02T00:13:05;99754.34;;;6.22;100.00
54262;BME280;40174;52.364;6.452;2024-03-02T00:15:41;99748.38;;;6.20;100.00
54262;BME280;40174;52.364;6.452;2024-03-02T00:18:10;99754.59;;;6.19;100.00
54262;BME280;40174;52.364;6.452;2024-03-02T00:20:38;99751.59;;;6.24;100.00
54262;BME280;40174;52.364;6.452;2024-03-02T00:23:06;99740.28;;;6.23;100.00
54262;BME280;40174;52.364;6.452;2024-03-02T00:25:38;99748.97;;;6.24;100.00
54262;BME280;40174;52.364;6.452;2024-03-02T00:28:05;99746.34;;;6.24;100.00
54262;BME280;40174;52.364;6.452;2024-03-02T00:30:51;99740.13;;;6.25;100.00
54262;BME280;40174;52.364;6.452;2024-03-02T00:33:18;99737.41;;;6.27;100.00
54262;BME280;40174;52.364;6.452;2024-03-02T00:35:46;99737.16;;;6.30;100.00
54262;BME280;40174;52.364;6.452;2024-03-02T00:38:14;99719.50;;;6.32;100.00
54262;BME280;40174;52.364;6.452;2024-03-02T00:40:41;99725.34;;;6.35;100.00
54262;BME280;40174;52.364;6.452;2024-03-02T00:43:17;99726.06;;;6.37;100.00
54262;BME280;40174;52.364;6.452;2024-03-02T00:45:54;99729.84;;;6.44;100.00
54262;BME280;40174;52.364;6.452;2024-03-02T00:48:21;99723.50;;;6.47;100.00
54262;BME280;40174;52.364;6.452;2024-03-02T00:50:50;99723.78;;;6.44;100.00
54262;BME280;40174;52.364;6.452;2024-03-02T00:53:20;99728.06;;;6.45;100.00
54262;BME280;40174;52.364;6.452;2024-03-02T00:55:50;99732.22;;;6.48;100.00
54262;BME280;40174;52.364;6.452;2024-03-02T00:58:17;99725.19;;;6.48;100.00
54262;BME280;40174;52.364;6.452;2024-03-02T01:00:43;99733.19;;;6.47;100.00
54262;BME280;40174;52.364;6.452;2024-03-02T01:03:12;99727.56;;;6.51;100.00
54262;BME280;40174;52.364;6.452;2024-03-02T01:05:41;99735.44;;;6.51;100.00
54262;BME280;40174;52.364;6.452;2024-03-02T01:08:08;99728.50;;;6.50;100.00
54262;BME280;40174;52.364;6.452;2024-03-02T01:10:35;99717.19;;;6.50;100.00
54262;BME280;40174;52.364;6.452;2024-03-02T01:13:02;99718.97;;;6.49;100.00
54262;BME280;40174;52.364;6.452;2024-03-02T01:15:29;99716.69;;;6.56;100.00
54262;BME280;40174;52.364;6.452;2024-03-02T01:17:56;99714.19;;;6.54;100.00
54262;BME280;40174;52.364;6.452;2024-03-02T01:20:24;99717.88;;;6.52;100.00
54262;BME280;40174;52.364;6.452;2024-03-02T01:22:51;99716.34;;;6.49;100.00
54262;BME280;40174;52.364;6.452;2024-03-02T01:25:17;99719.22;;;6.46;100.00
54262;BME280;40174;52.364;6.452;2024-03-02T01:27:44;99709.91;;;6.53;100.00
54262;BME280;40174;52.364;6.452;2024-03-02T01:30:11;99709.19;;;6.51;100.00
54262;BME280;40174;52.364;6.452;2024-03-02T01:32:37;99715.25;;;6.52;100.00
54262;BME280;40174;52.364;6.452;2024-03-02T01:35:05;99708.69;;;6.57;100.00
54262;BME280;40174;52.364;6.452;2024-03-02T01:37:33;99697.47;;;6.55;100.00
54262;BME280;40174;52.364;6.452;2024-03-02T01:40:00;99694.84;;;6.55;100.00
54262;BME280;40174;52.364;6.452;2024-03-02T01:42:27;99697.59;;;6.54;100.00
54262;BME280;40174;52.364;6.452;2024-03-02T01:44:54;99706.63;;;6.61;100.00
54262;BME280;40174;52.364;6.452;2024-03-02T01:47:21;99705.94;;;6.59;100.00
54262;BME280;40174;52.364;6.452;2024-03-02T01:49:48;99703.44;;;6.57;100.00
54262;BME280;40174;52.364;6.452;2024-03-02T01:52:15;99699.97;;;6.57;100.00
54262;BME280;40174;52.364;6.452;2024-03-02T01:54:42;99708.44;;;6.60;100.00
54262;BME280;40174;52.364;6.452;2024-03-02T01:57:09;99704.16;;;6.59;100.00
54262;BME280;40174;52.364;6.452;2024-03-02T01:59:36;99706.19;;;6.56;100.00
54262;BME280;40174;52.364;6.452;2024-03-02T02:02:02;99706.31;;;6.54;100.00
54262;BME280;40174;52.364;6.452;2024-03-02T02:04:29;99719.44;;;6.54;100.00
54262;BME280;40174;52.364;6.452;2024-03-02T02:06:56;99701.19;;;6.53;100.00
54262;BME280;40174;52.364;6.452;2024-03-02T02:09:23;99709.19;;;6.51;100.00
54262;BME280;40174;52.364;6.452;2024-03-02T02:11:51;99719.31;;;6.56;100.00
54262;BME280;40174;52.364;6.452;2024-03-02T02:14:18;99723.59;;;6.57;100.00
54262;BME280;40174;52.364;6.452;2024-03-02T02:16:45;99712.84;;;6.60;100.00
54262;BME280;40174;52.364;6.452;2024-03-02T02:19:11;99705.22;;;6.57;100.00
54262;BME280;40174;52.364;6.452;2024-03-02T02:21:42;99710.94;;;6.62;100.00
54262;BME280;40174;52.364;6.452;2024-03-02T02:24:08;99711.50;;;6.65;100.00
54262;BME280;40174;52.364;6.452;2024-03-02T02:26:35;99721.78;;;6.69;100.00
54262;BME280;40174;52.364;6.452;2024-03-02T02:29:02;99724.03;;;6.73;100.00
54262;BME280;40174;52.364;6.452;2024-03-02T02:31:36;99719.88;;;6.71;100.00
54262;BME280;40174;52.364;6.452;2024-03-02T02:34:03;99722.13;;;6.75;100.00
54262;BME280;40174;52.364;6.452;2024-03-02T02:36:30;99727.69;;;6.82;100.00
54262;BME280;40174;52.364;6.452;2024-03-02T02:38:59;99726.84;;;6.81;100.00
54262;BME280;40174;52.364;6.452;2024-03-02T02:41:28;99716.09;;;6.84;100.00
54262;BME280;40174;52.364;6.452;2024-03-02T02:43:55;99721.09;;;6.87;100.00
54262;BME280;40174;52.364;6.452;2024-03-02T02:46:22;99727.88;;;6.90;100.00
54262;BME280;40174;52.364;6.452;2024-03-02T02:48:48;99716.88;;;6.96;100.00
54262;BME280;40174;52.364;6.452;2024-03-02T02:51:16;99717.59;;;6.98;100.00
54262;BME280;40174;52.364;6.452;2024-03-02T02:53:43;99718.75;;;7.05;100.00
54262;BME280;40174;52.364;6.452;2024-03-02T02:56:11;99723.94;;;7.17;100.00
54262;BME280;40174;52.364;6.452;2024-03-02T02:58:39;99718.94;;;7.14;100.00
54262;BME280;40174;52.364;6.452;2024-03-02T03:01:06;99715.50;;;7.13;100.00
54262;BME280;40174;52.364;6.452;2024-03-02T03:03:33;99707.84;;;7.10;100.00
54262;BME280;40174;52.364;6.452;2024-03-02T03:06:00;99698.88;;;7.13;100.00
54262;BME280;40174;52.364;6.452;2024-03-02T03:08:27;99705.94;;;7.12;100.00
54262;BME280;40174;52.364;6.452;2024-03-02T03:10:54;99704.97;;;7.13;100.00
54262;BME280;40174;52.364;6.452;2024-03-02T03:13:22;99701.09;;;7.17;100.00
54262;BME280;40174;52.364;6.452;2024-03-02T03:15:49;99702.19;;;7.15;100.00
54262;BME280;40174;52.364;6.452;2024-03-02T03:18:16;99704.81;;;7.15;100.00
54262;BME280;40174;52.364;6.452;2024-03-02T03:20:42;99693.63;;;7.13;100.00
54262;BME280;40174;52.364;6.452;2024-03-02T03:23:09;99698.16;;;7.11;100.00
54262;BME280;40174;52.364;6.452;2024-03-02T03:25:40;99697.22;;;7.12;100.00
54262;BME280;40174;52.364;6.452;2024-03-02T03:28:07;99699.72;;;7.13;100.00
54262;BME280;40174;52.364;6.452;2024-03-02T03:30:36;99710.78;;;7.17;100.00
54262;BME280;40174;52.364;6.452;2024-03-02T03:33:03;99703.19;;;7.14;100.00
54262;BME280;40174;52.364;6.452;2024-03-02T03:35:31;99704.97;;;7.13;100.00
54262;BME280;40174;52.364;6.452;2024-03-02T03:37:57;99690.97;;;7.13;100.00
54262;BME280;40174;52.364;6.452;2024-03-02T03:40:24;99699.97;;;7.10;100.00
54262;BME280;40174;52.364;6.452;2024-03-02T03:42:51;99692.47;;;7.05;100.00
54262;BME280;40174;52.364;6.452;2024-03-02T03:45:17;99688.63;;;7.10;100.00
54262;BME280;40174;52.364;6.452;2024-03-02T03:47:45;99701.25;;;7.16;100.00
54262;BME280;40174;52.364;6.452;2024-03-02T03:50:12;99692.91;;;7.11;100.00
54262;BME280;40174;52.364;6.452;2024-03-02T03:52:39;99695.53;;;7.11;100.00
54262;BME280;40174;52.364;6.452;2024-03-02T03:55:06;99700.94;;;7.09;100.00
54262;BME280;40174;52.364;6.452;2024-03-02T03:57:32;99716.69;;;7.09;100.00
54262;BME280;40174;52.364;6.452;2024-03-02T03:59:59;99711.44;;;7.09;100.00
54262;BME280;40174;52.364;6.452;2024-03-02T04:02:26;99713.25;;;7.08;100.00
54262;BME280;40174;52.364;6.452;2024-03-02T04:04:54;99716.69;;;7.09;100.00
54262;BME280;40174;52.364;6.452;2024-03-02T04:07:20;99709.66;;;7.10;100.00
54262;BME280;40174;52.364;6.452;2024-03-02T04:09:47;99718.50;;;7.08;100.00
54262;BME280;40174;52.364;6.452;2024-03-02T04:12:13;99722.66;;;7.11;100.00
54262;BME280;40174;52.364;6.452;2024-03-02T04:14:40;99727.78;;;7.13;100.00
54262;BME280;40174;52.364;6.452;2024-03-02T04:17:07;99730.66;;;7.10;100.00
54262;BME280;40174;52.364;6.452;2024-03-02T04:19:35;99736.19;;;7.06;100.00
54262;BME280;40174;52.364;6.452;2024-03-02T04:22:03;99725.91;;;7.03;100.00
54262;BME280;40174;52.364;6.452;2024-03-02T04:24:30;99733.94;;;7.02;100.00
54262;BME280;40174;52.364;6.452;2024-03-02T04:26:56;99734.19;;;6.99;100.00
54262;BME280;40174;52.364;6.452;2024-03-02T04:29:23;99738.34;;;7.01;100.00
54262;BME280;40174;52.364;6.452;2024-03-02T04:31:49;99747.53;;;7.07;100.00
54262;BME280;40174;52.364;6.452;2024-03-02T04:34:16;99746.00;;;7.04;100.00
54262;BME280;40174;52.364;6.452;2024-03-02T04:36:42;99749.72;;;7.02;100.00
54262;BME280;40174;52.364;6.452;2024-03-02T04:39:10;99760.44;;;6.99;100.00
54262;BME280;40174;52.364;6.452;2024-03-02T04:41:37;99760.44;;;6.99;100.00
54262;BME280;40174;52.364;6.452;2024-03-02T04:44:04;99751.84;;;6.97;100.00
54262;BME280;40174;52.364;6.452;2024-03-02T04:46:33;99746.59;;;6.97;100.00
54262;BME280;40174;52.364;6.452;2024-03-02T04:48:59;99758.91;;;6.96;100.00
54262;BME280;40174;52.364;6.452;2024-03-02T04:51:26;99767.63;;;6.97;100.00
54262;BME280;40174;52.364;6.452;2024-03-02T04:53:53;99768.59;;;6.96;100.00
54262;BME280;40174;52.364;6.452;2024-03-02T04:56:21;99764.44;;;6.93;100.00
54262;BME280;40174;52.364;6.452;2024-03-02T04:59:05;99763.84;;;6.90;100.00
54262;BME280;40174;52.364;6.452;2024-03-02T05:01:31;99770.44;;;6.84;100.00
54262;BME280;40174;52.364;6.452;2024-03-02T05:03:58;99760.63;;;6.86;100.00
54262;BME280;40174;52.364;6.452;2024-03-02T05:06:24;99763.38;;;6.84;100.00
54262;BME280;40174;52.364;6.452;2024-03-02T05:08:51;99779.53;;;6.80;100.00
54262;BME280;40174;52.364;6.452;2024-03-02T05:11:18;99781.44;;;6.78;100.00
54262;BME280;40174;52.364;6.452;2024-03-02T05:14:03;99781.81;;;6.73;100.00
54262;BME280;40174;52.364;6.452;2024-03-02T05:16:32;99790.88;;;6.69;100.00
54262;BME280;40174;52.364;6.452;2024-03-02T05:18:59;99799.69;;;6.68;100.00
54262;BME280;40174;52.364;6.452;2024-03-02T05:21:26;99793.78;;;6.66;100.00
54262;BME280;40174;52.364;6.452;2024-03-02T05:23:52;99802.25;;;6.58;100.00
54262;BME280;40174;52.364;6.452;2024-03-02T05:26:19;99800.34;;;6.60;100.00
54262;BME280;40174;52.364;6.452;2024-03-02T05:28:45;99797.25;;;6.55;100.00
54262;BME280;40174;52.364;6.452;2024-03-02T05:31:15;99799.38;;;6.50;100.00
54262;BME280;40174;52.364;6.452;2024-03-02T05:33:41;99788.56;;;6.43;100.00
54262;BME280;40174;52.364;6.452;2024-03-02T05:36:09;99807.06;;;6.42;100.00
54262;BME280;40174;52.364;6.452;2024-03-02T05:38:35;99804.06;;;6.35;100.00
54262;BME280;40174;52.364;6.452;2024-03-02T05:41:03;99808.34;;;6.36;100.00
54262;BME280;40174;52.364;6.452;2024-03-02T05:43:30;99802.88;;;6.39;100.00
54262;BME280;40174;52.364;6.452;2024-03-02T05:45:56;99807.91;;;6.31;100.00
54262;BME280;40174;52.364;6.452;2024-03-02T05:48:24;99809.31;;;6.35;100.00
54262;BME280;40174;52.364;6.452;2024-03-02T05:50:51;99814.78;;;6.32;100.00
54262;BME280;40174;52.364;6.452;2024-03-02T05:53:17;99820.78;;;6.23;100.00
54262;BME280;40174;52.364;6.452;2024-03-02T05:55:44;99809.69;;;6.19;100.00
54262;BME280;40174;52.364;6.452;2024-03-02T05:58:11;99821.38;;;6.15;100.00
54262;BME280;40174;52.364;6.452;2024-03-02T06:00:51;99823.03;;;6.16;100.00
54262;BME280;40174;52.364;6.452;2024-03-02T06:03:17;99813.25;;;6.18;100.00
54262;BME280;40174;52.364;6.452;2024-03-02T06:05:45;99816.50;;;6.22;100.00
54262;BME280;40174;52.364;6.452;2024-03-02T06:08:14;99822.09;;;6.17;100.00
54262;BME280;40174;52.364;6.452;2024-03-02T06:10:41;99821.50;;;6.14;100.00
54262;BME280;40174;52.364;6.452;2024-03-02T06:13:07;99834.59;;;6.14;100.00
54262;BME280;40174;52.364;6.452;2024-03-02T06:15:36;99836.41;;;6.13;100.00
54262;BME280;40174;52.364;6.452;2024-03-02T06:18:03;99829.63;;;6.11;100.00
54262;BME280;40174;52.364;6.452;2024-03-02T06:20:32;99835.09;;;6.08;100.00
54262;BME280;40174;52.364;6.452;2024-03-02T06:22:59;99844.88;;;6.06;100.00
54262;BME280;40174;52.364;6.452;2024-03-02T06:25:26;99842.25;;;6.06;100.00
54262;BME280;40174;52.364;6.452;2024-03-02T06:27:53;99838.91;;;6.03;100.00
54262;BME280;40174;52.364;6.452;2024-03-02T06:30:20;99838.06;;;6.03;100.00
54262;BME280;40174;52.364;6.452;2024-03-02T06:32:46;99840.47;;;6.06;100.00
54262;BME280;40174;52.364;6.452;2024-03-02T06:35:13;99837.38;;;6.01;100.00
54262;BME280;40174;52.364;6.452;2024-03-02T06:37:39;99840.81;;;6.01;100.00
54262;BME280;40174;52.364;6.452;2024-03-02T06:40:08;99842.63;;;6.01;100.00
54262;BME280;40174;52.364;6.452;2024-03-02T06:42:35;99848.19;;;5.96;100.00
54262;BME280;40174;52.364;6.452;2024-03-02T06:45:02;99848.19;;;5.96;100.00
54262;BME280;40174;52.364;6.452;2024-03-02T06:47:29;99853.22;;;5.99;100.00
54262;BME280;40174;52.364;6.452;2024-03-02T06:49:56;99862.03;;;5.98;100.00
54262;BME280;40174;52.364;6.452;2024-03-02T06:52:23;99852.50;;;5.97;100.00
54262;BME280;40174;52.364;6.452;2024-03-02T06:54:50;99845.78;;;5.93;100.00
54262;BME280;40174;52.364;6.452;2024-03-02T06:57:18;99851.53;;;5.98;100.00
54262;BME280;40174;52.364;6.452;2024-03-02T06:59:46;99851.78;;;5.95;100.00
54262;BME280;40174;52.364;6.452;2024-03-02T07:02:12;99851.84;;;5.94;100.00
54262;BME280;40174;52.364;6.452;2024-03-02T07:04:39;99860.78;;;5.91;100.00
54262;BME280;40174;52.364;6.452;2024-03-02T07:07:05;99857.69;;;5.86;100.00
54262;BME280;40174;52.364;6.452;2024-03-02T07:09:32;99853.28;;;5.87;100.00
54262;BME280;40174;52.364;6.452;2024-03-02T07:11:59;99854.09;;;5.87;100.00
54262;BME280;40174;52.364;6.452;2024-03-02T07:14:27;99860.22;;;5.88;100.00
54262;BME280;40174;52.364;6.452;2024-03-02T07:17:20;99852.56;;;5.84;100.00
54262;BME280;40174;52.364;6.452;2024-03-02T07:19:47;99856.88;;;5.86;100.00
54262;BME280;40174;52.364;6.452;2024-03-02T07:22:14;99864.94;;;5.82;100.00
54262;BME280;40174;52.364;6.452;2024-03-02T07:24:40;99885.81;;;5.84;100.00
54262;BME280;40174;52.364;6.452;2024-03-02T07:27:08;99884.16;;;5.83;100.00
54262;BME280;40174;52.364;6.452;2024-03-02T07:29:36;99876.28;;;5.83;100.00
54262;BME280;40174;52.364;6.452;2024-03-02T07:32:03;99883.19;;;5.84;100.00
54262;BME280;40174;52.364;6.452;2024-03-02T07:34:30;99886.78;;;5.83;100.00
54262;BME280;40174;52.364;6.452;2024-03-02T07:36:56;99893.56;;;5.86;100.00
54262;BME280;40174;52.364;6.452;2024-03-02T07:39:23;99895.03;;;5.90;100.00
54262;BME280;40174;52.364;6.452;2024-03-02T07:41:50;99894.88;;;5.91;100.00
54262;BME280;40174;52.364;6.452;2024-03-02T07:44:17;99897.34;;;5.94;100.00
54262;BME280;40174;52.364;6.452;2024-03-02T07:46:46;99900.63;;;5.96;100.00
54262;BME280;40174;52.364;6.452;2024-03-02T07:49:15;99903.06;;;5.99;100.00
54262;BME280;40174;52.364;6.452;2024-03-02T07:51:41;99896.38;;;6.07;100.00
54262;BME280;40174;52.364;6.452;2024-03-02T07:54:08;99905.94;;;6.08;100.00
54262;BME280;40174;52.364;6.452;2024-03-02T07:56:35;99904.16;;;6.08;100.00
54262;BME280;40174;52.364;6.452;2024-03-02T07:59:02;99907.84;;;6.17;100.00
54262;BME280;40174;52.364;6.452;2024-03-02T08:01:30;99897.38;;;6.17;100.00
54262;BME280;40174;52.364;6.452;2024-03-02T08:04:00;99904.63;;;6.13;100.00
54262;BME280;40174;52.364;6.452;2024-03-02T08:06:29;99920.63;;;6.21;100.00
54262;BME280;40174;52.364;6.452;2024-03-02T08:08:56;99919.31;;;6.27;100.00
54262;BME280;40174;52.364;6.452;2024-03-02T08:11:23;99919.56;;;6.35;100.00
54262;BME280;40174;52.364;6.452;2024-03-02T08:13:50;99925.63;;;6.36;100.00
54262;BME280;40174;52.364;6.452;2024-03-02T08:16:17;99932.06;;;6.43;100.00
54262;BME280;40174;52.364;6.452;2024-03-02T08:18:45;99937.69;;;6.50;100.00
54262;BME280;40174;52.364;6.452;2024-03-02T08:21:13;99935.69;;;6.53;100.00
54262;BME280;40174;52.364;6.452;2024-03-02T08:23:40;99930.78;;;6.60;100.00
54262;BME280;40174;52.364;6.452;2024-03-02T08:26:07;99946.28;;;6.74;100.00
54262;BME280;40174;52.364;6.452;2024-03-02T08:28:34;99945.34;;;6.86;100.00
54262;BME280;40174;52.364;6.452;2024-03-02T08:31:02;99938.28;;;6.98;100.00
54262;BME280;40174;52.364;6.452;2024-03-02T08:33:29;99947.34;;;7.05;100.00
54262;BME280;40174;52.364;6.452;2024-03-02T08:35:56;99947.78;;;7.11;100.00
54262;BME280;40174;52.364;6.452;2024-03-02T08:38:24;99946.00;;;7.22;100.00
54262;BME280;40174;52.364;6.452;2024-03-02T08:40:51;99947.44;;;7.26;100.00
54262;BME280;40174;52.364;6.452;2024-03-02T08:43:17;99946.09;;;7.32;100.00
54262;BME280;40174;52.364;6.452;2024-03-02T08:45:45;99946.81;;;7.34;100.00
54262;BME280;40174;52.364;6.452;2024-03-02T08:48:12;99940.72;;;7.34;100.00
54262;BME280;40174;52.364;6.452;2024-03-02T08:50:39;99948.69;;;7.43;100.00
54262;BME280;40174;52.364;6.452;2024-03-02T08:53:05;99952.28;;;7.42;100.00
54262;BME280;40174;52.364;6.452;2024-03-02T08:55:33;99941.28;;;7.37;100.00
54262;BME280;40174;52.364;6.452;2024-03-02T08:58:00;99945.59;;;7.38;100.00
54262;BME280;40174;52.364;6.452;2024-03-02T09:00:27;99945.69;;;7.48;100.00
54262;BME280;40174;52.364;6.452;2024-03-02T09:02:54;99955.81;;;7.53;100.00
54262;BME280;40174;52.364;6.452;2024-03-02T09:05:21;99955.94;;;7.62;100.00
54262;BME280;40174;52.364;6.452;2024-03-02T09:07:47;99978.25;;;7.68;100.00
54262;BME280;40174;52.364;6.452;2024-03-02T09:10:14;99962.09;;;7.73;100.00
54262;BME280;40174;52.364;6.452;2024-03-02T09:12:43;99954.78;;;7.76;100.00
54262;BME280;40174;52.364;6.452;2024-03-02T09:15:09;99962.41;;;7.79;100.00
54262;BME280;40174;52.364;6.452;2024-03-02T09:17:36;99963.72;;;7.85;100.00
54262;BME280;40174;52.364;6.452;2024-03-02T09:20:03;99966.28;;;7.96;100.00
54262;BME280;40174;52.364;6.452;2024-03-02T09:22:30;99973.97;;;8.09;100.00
54262;BME280;40174;52.364;6.452;2024-03-02T09:24:57;99971.44;;;8.19;100.00
54262;BME280;40174;52.364;6.452;2024-03-02T09:27:24;99968.97;;;8.27;100.00
54262;BME280;40174;52.364;6.452;2024-03-02T09:29:52;99974.94;;;8.29;100.00
54262;BME280;40174;52.364;6.452;2024-03-02T09:32:19;99965.56;;;8.36;100.00
54262;BME280;40174;52.364;6.452;2024-03-02T09:34:45;99972.91;;;8.53;100.00
54262;BME280;40174;52.364;6.452;2024-03-02T09:37:13;99968.13;;;8.68;100.00
54262;BME280;40174;52.364;6.452;2024-03-02T09:39:40;99963.72;;;8.79;100.00
54262;BME280;40174;52.364;6.452;2024-03-02T09:42:07;99966.97;;;8.92;100.00
54262;BME280;40174;52.364;6.452;2024-03-02T09:44:33;99963.09;;;8.96;100.00
54262;BME280;40174;52.364;6.452;2024-03-02T09:47:01;99965.03;;;8.94;100.00
54262;BME280;40174;52.364;6.452;2024-03-02T09:49:28;99974.25;;;9.09;100.00
54262;BME280;40174;52.364;6.452;2024-03-02T09:51:55;99983.16;;;9.18;100.00
54262;BME280;40174;52.364;6.452;2024-03-02T09:54:22;99974.41;;;9.18;100.00
54262;BME280;40174;52.364;6.452;2024-03-02T09:56:49;99976.41;;;9.35;100.00
54262;BME280;40174;52.364;6.452;2024-03-02T09:59:16;99972.38;;;9.50;100.00
54262;BME280;40174;52.364;6.452;2024-03-02T10:01:56;99978.22;;;9.64;100.00
54262;BME280;40174;52.364;6.452;2024-03-02T10:04:25;99973.94;;;9.82;100.00
54262;BME280;40174;52.364;6.452;2024-03-02T10:07:09;99975.75;;;9.91;100.00
54262;BME280;40174;52.364;6.452;2024-03-02T10:09:36;99979.06;;;10.03;100.00
54262;BME280;40174;52.364;6.452;2024-03-02T10:12:04;99972.13;;;9.92;100.00
54262;BME280;40174;52.364;6.452;2024-03-02T10:14:31;99975.19;;;9.88;100.00
54262;BME280;40174;52.364;6.452;2024-03-02T10:17:02;99980.75;;;9.85;100.00
54262;BME280;40174;52.364;6.452;2024-03-02T10:19:30;99978.50;;;9.90;100.00
54262;BME280;40174;52.364;6.452;2024-03-02T10:21:59;99979.88;;;10.04;100.00
54262;BME280;40174;52.364;6.452;2024-03-02T10:24:25;99983.91;;;10.17;100.00
54262;BME280;40174;52.364;6.452;2024-03-02T10:26:52;99973.63;;;10.34;100.00
54262;BME280;40174;52.364;6.452;2024-03-02T10:29:19;99972.91;;;10.42;100.00
54262;BME280;40174;52.364;6.452;2024-03-02T10:31:46;99971.91;;;10.52;100.00
54262;BME280;40174;52.364;6.452;2024-03-02T10:34:13;99968.97;;;10.65;100.00
54262;BME280;40174;52.364;6.452;2024-03-02T10:36:43;99953.09;;;10.65;100.00
54262;BME280;40174;52.364;6.452;2024-03-02T10:39:12;99963.75;;;10.73;100.00
54262;BME280;40174;52.364;6.452;2024-03-02T10:52:29;99975.28;;;11.37;100.00
54262;BME280;40174;52.364;6.452;2024-03-02T11:00:13;99968.50;;;11.71;100.00
54262;BME280;40174;52.364;6.452;2024-03-02T11:02:51;99977.63;;;11.76;100.00
54262;BME280;40174;52.364;6.452;2024-03-02T11:05:25;99976.16;;;11.92;100.00
54262;BME280;40174;52.364;6.452;2024-03-02T11:07:57;99976.97;;;11.92;100.00
54262;BME280;40174;52.364;6.452;2024-03-02T11:10:33;99982.91;;;12.04;100.00
54262;BME280;40174;52.364;6.452;2024-03-02T11:13:02;99984.84;;;12.20;100.00
54262;BME280;40174;52.364;6.452;2024-03-02T11:15:31;99978.47;;;12.13;100.00
54262;BME280;40174;52.364;6.452;2024-03-02T11:18:01;99969.84;;;12.11;100.00
54262;BME280;40174;52.364;6.452;2024-03-02T11:20:30;99979.16;;;12.15;100.00
54262;BME280;40174;52.364;6.452;2024-03-02T11:23:04;99972.22;;;12.40;100.00
54262;BME280;40174;52.364;6.452;2024-03-02T11:25:31;99977.72;;;12.46;100.00
54262;BME280;40174;52.364;6.452;2024-03-02T11:28:05;99977.41;;;12.50;100.00
54262;BME280;40174;52.364;6.452;2024-03-02T11:30:54;99974.50;;;12.61;100.00
54262;BME280;40174;52.364;6.452;2024-03-02T11:33:24;99974.09;;;12.82;100.00
54262;BME280;40174;52.364;6.452;2024-03-02T11:35:52;99974.47;;;12.87;100.00
54262;BME280;40174;52.364;6.452;2024-03-02T11:38:20;99966.97;;;12.82;100.00
54262;BME280;40174;52.364;6.452;2024-03-02T11:40:47;99980.44;;;12.89;100.00
54262;BME280;40174;52.364;6.452;2024-03-02T11:43:14;99966.63;;;12.77;100.00
54262;BME280;40174;52.364;6.452;2024-03-02T11:45:42;99952.59;;;12.93;100.00
54262;BME280;40174;52.364;6.452;2024-03-02T11:48:11;99957.50;;;13.14;100.00
54262;BME280;40174;52.364;6.452;2024-03-02T11:50:47;99948.38;;;13.25;100.00
54262;BME280;40174;52.364;6.452;2024-03-02T11:53:16;99953.28;;;13.38;100.00
54262;BME280;40174;52.364;6.452;2024-03-02T11:55:45;99940.44;;;13.25;100.00
54262;BME280;40174;52.364;6.452;2024-03-02T11:58:13;99947.97;;;13.38;100.00
54262;BME280;40174;52.364;6.452;2024-03-02T12:00:42;99943.34;;;13.48;100.00
54262;BME280;40174;52.364;6.452;2024-03-02T12:03:13;99949.16;;;13.60;100.00
54262;BME280;40174;52.364;6.452;2024-03-02T12:08:16;99930.09;;;13.72;100.00
54262;BME280;40174;52.364;6.452;2024-03-02T12:10:44;99939.56;;;13.91;100.00
54262;BME280;40174;52.364;6.452;2024-03-02T12:13:21;99935.91;;;14.09;100.00
54262;BME280;40174;52.364;6.452;2024-03-02T12:15:53;99926.06;;;14.26;100.00
54262;BME280;40174;52.364;6.452;2024-03-02T12:18:19;99927.91;;;14.25;100.00
54262;BME280;40174;52.364;6.452;2024-03-02T12:20:48;99930.75;;;14.24;100.00
54262;BME280;40174;52.364;6.452;2024-03-02T12:23:18;99926.56;;;14.21;100.00
54262;BME280;40174;52.364;6.452;2024-03-02T12:25:46;99924.91;;;14.28;100.00
54262;BME280;40174;52.364;6.452;2024-03-02T12:28:13;99911.44;;;14.30;100.00
54262;BME280;40174;52.364;6.452;2024-03-02T12:30:40;99918.94;;;14.26;100.00
54262;BME280;40174;52.364;6.452;2024-03-02T12:33:07;99919.81;;;14.10;100.00
54262;BME280;40174;52.364;6.452;2024-03-02T12:35:33;99926.41;;;14.31;100.00
54262;BME280;40174;52.364;6.452;2024-03-02T12:38:02;99920.94;;;14.24;100.00
54262;BME280;40174;52.364;6.452;2024-03-02T12:40:30;99929.72;;;14.25;100.00
54262;BME280;40174;52.364;6.452;2024-03-02T12:42:59;99914.25;;;14.37;100.00
54262;BME280;40174;52.364;6.452;2024-03-02T12:45:26;99917.56;;;14.47;100.00
54262;BME280;40174;52.364;6.452;2024-03-02T12:47:53;99925.50;;;14.71;100.00
54262;BME280;40174;52.364;6.452;2024-03-02T12:50:20;99921.56;;;14.90;100.00
54262;BME280;40174;52.364;6.452;2024-03-02T12:52:51;99925.56;;;14.86;100.00
54262;BME280;40174;52.364;6.452;2024-03-02T12:55:19;99925.25;;;14.89;100.00
54262;BME280;40174;52.364;6.452;2024-03-02T12:57:46;99937.66;;;15.05;100.00
54262;BME280;40174;52.364;6.452;2024-03-02T13:00:15;99926.50;;;15.02;100.00
54262;BME280;40174;52.364;6.452;2024-03-02T13:02:45;99925.81;;;15.08;100.00
54262;BME280;40174;52.364;6.452;2024-03-02T13:05:12;99924.81;;;15.09;100.00
54262;BME280;40174;52.364;6.452;2024-03-02T13:07:39;99915.78;;;14.87;100.00
54262;BME280;40174;52.364;6.452;2024-03-02T13:10:07;99916.88;;;14.53;100.00
54262;BME280;40174;52.364;6.452;2024-03-02T13:12:35;99912.91;;;14.41;100.00
54262;BME280;40174;52.364;6.452;2024-03-02T13:15:02;99911.28;;;14.31;100.00
54262;BME280;40174;52.364;6.452;2024-03-02T13:17:34;99905.81;;;14.25;100.00
54262;BME280;40174;52.364;6.452;2024-03-02T13:20:00;99907.66;;;14.08;100.00